Time;durP1;ratioP1;P1;durP2;ratioP2;P2;SDS_P1;SDS_P2;PMS_P1;PMS_P2;Temp;Humidity;BMP_temperature;BMP_pressure;BME280_temperature;BME280_humidity;BME280_pressure;Samples;Min_cycle;Max_cycle;Signal;HPM_P1;HPM_P2
2022/07/26 00:00:18;;;;;;;3.22;2.72;;;;;;;21.31;43.81;98273.13;4484404;31;20092;-72
2022/07/26 00:02:46;;;;;;;5.43;2.70;;;;;;;21.21;43.97;98267.47;4484587;31;20492;-72
2022/07/26 00:05:15;;;;;;;2.95;2.62;;;;;;;21.17;43.94;98267.12;4484488;32;20118;-72
2022/07/26 00:07:44;;;;;;;4.25;2.95;;;;;;;21.17;43.84;98263.66;4484570;31;20251;-72
2022/07/26 00:10:12;;;;;;;3.22;2.65;;;;;;;21.11;44.16;98261.84;4484542;31;20442;-71
2022/07/26 00:12:39;;;;;;;3.78;2.75;;;;;;;21.04;44.29;98265.38;4484605;32;20148;-72
2022/07/26 00:15:08;;;;;;;4.32;3.08;;;;;;;21.03;44.29;98257.59;4484434;32;20104;-72
2022/07/26 00:17:37;;;;;;;5.72;2.78;;;;;;;20.94;44.73;98254.41;4482986;32;20449;-72
2022/07/26 00:20:05;;;;;;;4.32;2.92;;;;;;;20.90;44.26;98250.53;4484210;31;20457;-72
2022/07/26 00:22:35;;;;;;;4.12;2.78;;;;;;;20.86;44.95;98249.34;4483934;31;20092;-72
2022/07/26 00:25:05;;;;;;;2.90;2.40;;;;;;;20.80;45.24;98247.53;4483003;32;20124;-72
2022/07/26 00:27:35;;;;;;;6.40;2.95;;;;;;;20.73;45.23;98240.41;4484283;31;20152;-72
2022/07/26 00:30:06;;;;;;;4.45;2.60;;;;;;;20.67;45.30;98235.16;4484613;32;20072;-71
2022/07/26 00:32:33;;;;;;;3.15;2.80;;;;;;;20.62;45.57;98235.78;4483978;31;20092;-72
2022/07/26 00:35:00;;;;;;;6.43;2.97;;;;;;;20.58;45.89;98236.41;4484174;31;20089;-72
2022/07/26 00:37:27;;;;;;;3.45;2.67;;;;;;;20.53;45.73;98239.69;4484073;32;20160;-72
2022/07/26 00:39:55;;;;;;;3.05;2.47;;;;;;;20.48;46.00;98236.88;4484042;31;20223;-71
2022/07/26 00:42:22;;;;;;;3.33;2.60;;;;;;;20.53;45.03;98237.88;4483857;31;20101;-72
2022/07/26 00:44:49;;;;;;;5.05;2.62;;;;;;;20.60;44.06;98229.81;4483939;32;20100;-71
2022/07/26 00:47:17;;;;;;;4.50;2.97;;;;;;;20.73;44.24;98235.09;4483724;31;20518;-71
2022/07/26 00:49:44;;;;;;;4.35;2.80;;;;;;;20.71;44.80;98239.81;4483914;32;20092;-71
2022/07/26 00:52:12;;;;;;;7.93;3.00;;;;;;;20.76;43.68;98227.69;4483403;31;20115;-71
2022/07/26 00:54:42;;;;;;;5.55;3.08;;;;;;;20.92;43.53;98235.16;4483886;31;20123;-71
2022/07/26 00:57:10;;;;;;;3.62;2.90;;;;;;;21.01;43.42;98227.72;4483797;31;20088;-71
2022/07/26 00:59:38;;;;;;;8.70;3.00;;;;;;;21.12;42.93;98226.19;4483795;32;20092;-71
2022/07/26 01:02:07;;;;;;;5.75;2.72;;;;;;;21.22;42.49;98215.84;4483650;31;20092;-71
2022/07/26 01:04:35;;;;;;;7.62;2.95;;;;;;;21.27;42.79;98218.66;4483912;31;20084;-72
2022/07/26 01:07:03;;;;;;;5.43;2.62;;;;;;;21.33;42.97;98216.97;4470022;32;20172;-71
2022/07/26 01:09:42;;;;;;;4.00;2.87;;;;;;;21.36;42.68;98211.19;4470455;32;20068;-71
2022/07/26 01:12:10;;;;;;;5.47;3.40;;;;;;;21.42;42.57;98211.16;4470344;32;20097;-71
2022/07/26 01:14:37;;;;;;;8.77;3.22;;;;;;;21.48;42.65;98205.94;4470324;32;20153;-71
2022/07/26 01:17:04;;;;;;;3.60;3.03;;;;;;;21.61;42.52;98203.97;4470329;32;20548;-72
2022/07/26 01:19:31;;;;;;;4.15;2.97;;;;;;;21.64;42.46;98200.06;4470360;32;20080;-72
2022/07/26 01:21:58;;;;;;;3.72;3.33;;;;;;;21.66;42.75;98205.97;4470022;32;20104;-72
2022/07/26 01:24:26;;;;;;;4.85;3.40;;;;;;;21.74;42.66;98195.03;4470239;32;20803;-72
2022/07/26 01:26:56;;;;;;;3.87;2.90;;;;;;;21.71;42.74;98203.47;4465956;32;134494;-71
2022/07/26 01:29:23;;;;;;;5.20;3.22;;;;;;;21.70;42.69;98201.84;4470381;32;20045;-72
2022/07/26 01:32:03;;;;;;;12.10;4.15;;;;;;;21.80;42.69;98196.81;4469874;32;20123;-72
2022/07/26 01:34:31;;;;;;;14.15;3.75;;;;;;;21.94;42.39;98180.63;4470274;32;20591;-71
2022/07/26 01:36:58;;;;;;;9.00;3.10;;;;;;;21.90;42.60;98179.44;4470169;32;20101;-71
2022/07/26 01:39:26;;;;;;;4.10;3.12;;;;;;;21.92;42.53;98180.88;4470283;32;20184;-72
2022/07/26 01:41:53;;;;;;;6.32;3.22;;;;;;;21.79;42.96;98178.38;4470004;32;20097;-71
2022/07/26 01:44:21;;;;;;;4.97;3.10;;;;;;;21.71;43.25;98167.97;4470117;32;20068;-72
2022/07/26 01:46:49;;;;;;;6.53;3.60;;;;;;;21.62;43.38;98172.81;4469835;32;20115;-71
2022/07/26 01:49:16;;;;;;;6.55;3.75;;;;;;;21.59;43.65;98175.91;4470012;32;20085;-71
2022/07/26 01:51:43;;;;;;;5.80;3.37;;;;;;;21.51;43.76;98170.91;4469502;32;20119;-71
2022/07/26 01:54:11;;;;;;;7.22;3.30;;;;;;;21.49;44.00;98179.09;4469823;32;20113;-71
2022/07/26 01:56:38;;;;;;;6.68;4.07;;;;;;;21.43;44.18;98180.78;4469810;32;20088;-72
2022/07/26 01:59:06;;;;;;;9.35;3.45;;;;;;;21.34;44.69;98171.44;4470053;32;20115;-71
2022/07/26 02:01:33;;;;;;;4.85;3.65;;;;;;;21.40;44.96;98164.44;4482815;32;20450;-72
2022/07/26 02:04:07;;;;;;;7.97;4.05;;;;;;;21.40;44.80;98167.91;4485872;32;20109;-71
2022/07/26 02:06:35;;;;;;;6.47;3.87;;;;;;;21.34;44.97;98168.78;4485635;31;20103;-72
2022/07/26 02:09:03;;;;;;;10.18;3.92;;;;;;;21.32;45.15;98168.22;4485901;31;20100;-71
2022/07/26 02:11:33;;;;;;;4.80;3.70;;;;;;;21.31;45.09;98166.56;4485747;31;20155;-71
2022/07/26 02:14:01;;;;;;;7.93;3.58;;;;;;;21.26;45.19;98163.75;4485502;32;20096;-71
2022/07/26 02:16:29;;;;;;;6.53;3.72;;;;;;;21.18;45.89;98169.38;4485026;32;20159;-71
2022/07/26 02:18:56;;;;;;;8.27;3.87;;;;;;;21.03;46.10;98175.03;4485274;31;20097;-71
2022/07/26 02:21:23;;;;;;;7.72;3.80;;;;;;;20.92;46.68;98174.75;4485329;31;20146;-72
2022/07/26 02:23:50;;;;;;;5.78;3.75;;;;;;;20.90;47.10;98179.44;4483906;32;20104;-72
2022/07/26 02:26:18;;;;;;;7.22;3.35;;;;;;;20.82;47.52;98173.63;4485593;32;20454;-72
2022/07/26 02:28:45;;;;;;;8.10;3.90;;;;;;;20.82;47.02;98169.09;4485306;31;20517;-71
2022/07/26 02:31:12;;;;;;;8.13;3.97;;;;;;;20.83;46.86;98175.22;4485430;32;20747;-71
2022/07/26 02:33:41;;;;;;;7.80;3.58;;;;;;;20.69;48.11;98178.00;4485254;31;20450;-71
2022/07/26 02:36:08;;;;;;;6.55;3.50;;;;;;;20.59;48.24;98188.28;4485772;32;20093;-71
2022/07/26 02:38:36;;;;;;;7.50;3.80;;;;;;;20.51;48.30;98183.22;4485238;31;20092;-71
2022/07/26 02:41:05;;;;;;;7.20;3.58;;;;;;;20.48;48.39;98178.34;4485287;32;20810;-71
2022/07/26 02:43:32;;;;;;;5.25;3.83;;;;;;;20.44;48.38;98182.44;4485230;31;20553;-71
2022/07/26 02:45:59;;;;;;;6.62;4.05;;;;;;;20.39;48.60;98180.44;4485332;31;20513;-71
2022/07/26 02:48:31;;;;;;;5.18;3.33;;;;;;;20.30;49.06;98171.09;4485046;32;20084;-71
2022/07/26 02:50:58;;;;;;;4.22;3.00;;;;;;;20.28;48.71;98168.62;4485314;32;20104;-71
2022/07/26 02:53:26;;;;;;;5.30;3.90;;;;;;;20.26;48.74;98168.03;4484826;31;20173;-71
2022/07/26 02:55:53;;;;;;;4.43;3.33;;;;;;;20.24;48.84;98166.63;4485273;32;20155;-71
2022/07/26 02:58:20;;;;;;;6.80;3.90;;;;;;;20.17;49.20;98179.97;4485138;32;20114;-72
2022/07/26 03:00:47;;;;;;;7.45;3.72;;;;;;;20.12;49.28;98172.63;4485139;32;20127;-72
2022/07/26 03:03:15;;;;;;;6.35;3.60;;;;;;;20.09;49.68;98170.41;4485107;31;20119;-71
2022/07/26 03:05:42;;;;;;;3.70;3.08;;;;;;;20.02;50.20;98172.28;4485099;31;20151;-71
2022/07/26 03:08:09;;;;;;;6.80;3.53;;;;;;;19.99;50.35;98170.84;4484951;31;20157;-71
2022/07/26 03:10:37;;;;;;;5.25;3.85;;;;;;;19.99;50.35;98170.84;4485071;31;20104;-71
2022/07/26 03:13:04;;;;;;;8.00;3.80;;;;;;;19.92;51.10;98169.25;4484851;31;20553;-72
2022/07/26 03:15:31;;;;;;;5.70;4.03;;;;;;;19.89;50.81;98175.00;4485141;31;20563;-71
2022/07/26 03:17:59;;;;;;;5.47;3.78;;;;;;;19.83;51.11;98174.00;4484943;32;20110;-71
2022/07/26 03:20:26;;;;;;;8.18;3.97;;;;;;;19.86;51.35;98176.22;4485122;32;20566;-72
2022/07/26 03:22:53;;;;;;;4.10;3.40;;;;;;;19.77;51.63;98178.34;4484738;32;20092;-71
2022/07/26 03:25:21;;;;;;;9.70;3.55;;;;;;;19.73;51.92;98171.78;4485341;31;20107;-71
2022/07/26 03:27:48;;;;;;;9.63;3.70;;;;;;;19.75;51.84;98175.03;4484751;31;20153;-72
2022/07/26 03:30:15;;;;;;;4.75;3.30;;;;;;;19.81;51.58;98179.53;4485069;31;20096;-72
2022/07/26 03:32:51;;;;;;;8.32;3.62;;;;;;;19.90;50.99;98174.78;4484747;31;20089;-71
2022/07/26 03:35:18;;;;;;;7.00;3.70;;;;;;;20.02;50.47;98170.44;4484920;31;20108;-72
2022/07/26 03:37:45;;;;;;;13.80;3.80;;;;;;;20.12;50.23;98175.28;4484826;31;20159;-72
2022/07/26 03:40:17;;;;;;;11.82;3.83;;;;;;;20.23;49.73;98168.47;4484945;31;20163;-71
2022/07/26 03:42:45;;;;;;;8.23;3.75;;;;;;;20.35;49.72;98174.75;4484839;31;20085;-71
2022/07/26 03:45:14;;;;;;;9.15;3.67;;;;;;;20.46;49.29;98164.44;4484866;32;20161;-72
2022/07/26 03:47:41;;;;;;;7.80;3.67;;;;;;;20.55;48.89;98165.81;4485160;31;20079;-71
2022/07/26 03:50:10;;;;;;;4.75;2.83;;;;;;;20.68;48.60;98160.41;4484857;31;20096;-72
2022/07/26 03:52:37;;;;;;;5.57;3.40;;;;;;;20.82;48.36;98160.31;4484389;31;20118;-71
2022/07/26 03:56:27;;;;;;;6.80;3.85;;;;;;;20.93;47.72;98170.22;4484894;32;20186;-72
2022/07/26 03:57:53;;;;;;;8.55;3.65;;;;;;;21.03;47.65;98159.88;4484758;32;20144;-71
2022/07/26 04:00:20;;;;;;;5.80;3.62;;;;;;;21.20;47.14;98159.31;4484604;32;20092;-72
2022/07/26 04:02:47;;;;;;;6.87;3.50;;;;;;;21.34;46.94;98150.13;4484881;31;20118;-72
2022/07/26 04:05:14;;;;;;;9.93;3.55;;;;;;;21.45;47.04;98144.09;4483347;32;20096;-71
2022/07/26 04:07:48;;;;;;;12.43;3.80;;;;;;;21.56;48.11;98147.03;4484650;31;20080;-72
2022/07/26 04:10:20;;;;;;;12.95;3.78;;;;;;;21.65;47.14;98143.06;4484393;32;20119;-72
2022/07/26 04:12:49;;;;;;;10.85;3.78;;;;;;;21.77;47.38;98140.44;4484467;32;20509;-71
2022/07/26 04:15:17;;;;;;;8.48;3.83;;;;;;;21.95;46.15;98140.41;4484427;31;20088;-72
2022/07/26 04:17:47;;;;;;;6.62;4.87;;;;;;;22.24;44.41;98139.78;4484527;31;20101;-72
2022/07/26 04:20:15;;;;;;;8.98;4.12;;;;;;;22.57;43.95;98146.50;4484357;31;20173;-72
2022/07/26 04:22:43;;;;;;;11.68;4.12;;;;;;;22.88;43.41;98142.69;4484199;31;20153;-72
2022/07/26 04:25:11;;;;;;;5.70;3.62;;;;;;;23.16;43.48;98141.19;4484205;31;20114;-72
2022/07/26 04:27:38;;;;;;;6.95;3.87;;;;;;;23.30;44.37;98144.41;4484415;31;20163;-72
2022/07/26 04:30:06;;;;;;;7.87;3.75;;;;;;;23.36;45.41;98154.16;4483123;32;20104;-72
2022/07/26 04:32:42;;;;;;;8.65;3.60;;;;;;;23.30;46.85;98181.84;4484287;31;20081;-72
2022/07/26 04:35:11;;;;;;;4.72;3.50;;;;;;;22.94;46.54;98211.22;4483158;31;20136;-71
2022/07/26 04:37:40;;;;;;;9.30;3.85;;;;;;;22.97;43.39;98258.84;4482650;32;20092;-71
2022/07/26 04:40:08;;;;;;;5.40;3.92;;;;;;;22.55;44.20;98264.19;4481797;32;20120;-71
2022/07/26 04:42:37;;;;;;;6.03;4.15;;;;;;;22.44;44.09;98217.72;4481959;31;20088;-71
2022/07/26 04:45:05;;;;;;;11.90;4.30;;;;;;;22.41;44.20;98228.88;4480814;31;20643;-71
2022/07/26 04:47:35;;;;;;;6.35;4.05;;;;;;;22.50;43.35;98216.81;4482816;32;20230;-71
2022/07/26 04:50:03;;;;;;;7.97;3.75;;;;;;;22.64;43.06;98233.44;4482971;31;20104;-71
2022/07/26 04:52:30;;;;;;;7.70;4.22;;;;;;;22.73;42.92;98222.47;4482488;31;20096;-72
2022/07/26 04:55:00;;;;;;;8.48;4.03;;;;;;;22.80;43.17;98220.47;4482443;32;20096;-72
2022/07/26 04:57:27;;;;;;;11.45;3.83;;;;;;;22.87;42.94;98218.50;4481624;31;20481;-71
2022/07/26 04:59:54;;;;;;;8.13;4.12;;;;;;;22.96;42.66;98232.34;4481151;31;20148;-71
2022/07/26 05:02:41;;;;;;;7.00;3.85;;;;;;;23.07;42.12;98226.19;4484244;31;20100;-71
2022/07/26 05:05:08;;;;;;;7.37;3.95;;;;;;;23.16;41.82;98227.50;4484854;31;20092;-71
2022/07/26 05:07:43;;;;;;;5.43;3.58;;;;;;;23.27;41.65;98225.06;4485638;31;20553;-71
2022/07/26 05:10:12;;;;;;;5.78;4.20;;;;;;;23.41;41.99;98226.47;4481469;32;20095;-71
2022/07/26 05:12:39;;;;;;;6.37;4.65;;;;;;;23.43;42.93;98226.22;4481254;32;20131;-71
2022/07/26 05:15:07;;;;;;;8.77;4.50;;;;;;;23.46;43.63;98231.09;4484358;31;20592;-71
2022/07/26 05:17:41;;;;;;;6.40;3.97;;;;;;;23.53;44.26;98235.28;4485740;31;20133;-71
2022/07/26 05:20:11;;;;;;;9.48;4.43;;;;;;;23.62;44.07;98235.75;4482644;31;20092;-71
2022/07/26 05:22:38;;;;;;;8.40;4.00;;;;;;;23.55;44.04;98230.50;4484809;32;20100;-71
2022/07/26 05:25:07;;;;;;;7.07;4.40;;;;;;;23.42;44.43;98233.41;4479966;31;20116;-71
2022/07/26 05:27:34;;;;;;;6.85;4.68;;;;;;;23.27;45.17;98238.44;4478605;32;20100;-71
2022/07/26 05:30:02;;;;;;;9.88;4.80;;;;;;;23.39;45.81;98232.03;4479891;31;20108;-71
2022/07/26 05:32:29;;;;;;;10.82;4.82;;;;;;;23.54;46.90;98228.91;4481830;31;20171;-71
2022/07/26 05:34:56;;;;;;;12.90;6.07;;;;;;;23.60;47.53;98227.13;4481908;31;20120;-71
2022/07/26 05:37:23;;;;;;;8.45;5.35;;;;;;;23.84;47.52;98217.19;4482854;32;20096;-71
2022/07/26 05:39:51;;;;;;;18.17;5.95;;;;;;;24.03;47.40;98217.87;4483595;31;20450;-71
2022/07/26 05:42:18;;;;;;;13.32;6.05;;;;;;;24.11;47.60;98219.34;4482646;31;20105;-71
2022/07/26 05:44:45;;;;;;;14.60;5.93;;;;;;;24.17;48.23;98222.94;4483235;31;20175;-71
2022/07/26 05:47:12;;;;;;;8.43;5.30;;;;;;;24.21;48.93;98218.72;4482040;32;20513;-71
2022/07/26 05:49:39;;;;;;;17.02;5.82;;;;;;;24.42;49.21;98217.22;4483692;31;20096;-71
2022/07/26 05:52:07;;;;;;;13.38;5.22;;;;;;;24.41;50.49;98211.06;4476070;31;20130;-71
2022/07/26 05:54:35;;;;;;;11.77;5.28;;;;;;;24.64;51.09;98219.25;4477935;32;20104;-72
2022/07/26 05:57:03;;;;;;;12.95;5.37;;;;;;;24.77;51.67;98209.03;4481099;32;20092;-72
2022/07/26 05:59:30;;;;;;;9.93;5.28;;;;;;;24.86;52.00;98214.81;4478090;32;20120;-72
2022/07/26 06:01:58;;;;;;;12.63;4.87;;;;;;;24.96;52.04;98212.25;4478423;32;20129;-71
2022/07/26 06:04:26;;;;;;;12.57;4.87;;;;;;;24.97;52.31;98211.22;4480919;32;20536;-71
2022/07/26 06:06:54;;;;;;;8.45;5.05;;;;;;;25.09;52.33;98215.69;4480340;32;20089;-72
2022/07/26 06:09:25;;;;;;;13.80;5.70;;;;;;;25.10;52.40;98211.94;4480079;31;20444;-72
2022/07/26 06:11:53;;;;;;;11.02;5.43;;;;;;;25.15;52.89;98209.34;4480613;32;20606;-72
2022/07/26 06:14:21;;;;;;;14.25;5.93;;;;;;;25.29;53.22;98213.31;4480943;32;20132;-71
2022/07/26 06:16:49;;;;;;;9.32;5.72;;;;;;;25.49;52.82;98223.50;4481389;31;20607;-71
2022/07/26 06:19:17;;;;;;;11.95;5.75;;;;;;;25.32;54.18;98215.50;4474974;31;20452;-72
2022/07/26 06:21:44;;;;;;;22.25;6.00;;;;;;;25.37;54.82;98224.69;4483001;31;20122;-71
2022/07/26 06:24:12;;;;;;;9.35;6.40;;;;;;;25.41;55.09;98217.78;4480738;32;20184;-72
2022/07/26 06:26:40;;;;;;;16.42;5.70;;;;;;;25.47;55.26;98219.47;4483382;31;20146;-71
2022/07/26 06:29:07;;;;;;;10.27;5.95;;;;;;;25.67;54.84;98222.41;4483237;31;20092;-72
2022/07/26 06:31:34;;;;;;;9.18;5.78;;;;;;;25.79;54.71;98227.66;4482418;31;20100;-72
2022/07/26 06:34:01;;;;;;;12.00;6.07;;;;;;;25.96;54.36;98219.53;4480711;32;20115;-71
2022/07/26 06:36:28;;;;;;;16.50;5.90;;;;;;;26.06;54.03;98202.75;4483975;31;20093;-71
2022/07/26 06:38:57;;;;;;;18.42;5.43;;;;;;;25.76;54.97;98213.94;4481769;31;20390;-71
2022/07/26 06:41:25;;;;;;;21.85;5.45;;;;;;;25.81;54.56;98205.94;4483605;32;20104;-71
2022/07/26 06:43:52;;;;;;;9.32;4.95;;;;;;;25.45;55.95;98211.66;4483106;31;20115;-71
2022/07/26 06:46:19;;;;;;;12.10;5.37;;;;;;;25.53;56.05;98199.69;4480501;31;20100;-71
2022/07/26 06:48:48;;;;;;;9.75;5.47;;;;;;;25.82;55.35;98207.56;4479278;32;20105;-71
2022/07/26 06:51:19;;;;;;;7.87;5.25;;;;;;;25.97;54.48;98201.56;4478180;31;20118;-71
2022/07/26 06:53:46;;;;;;;9.13;5.60;;;;;;;25.54;55.68;98198.62;4482858;31;20097;-71
2022/07/26 06:56:16;;;;;;;7.78;5.72;;;;;;;25.61;55.54;98215.34;4481094;31;20835;-71
2022/07/26 06:58:43;;;;;;;6.75;4.82;;;;;;;25.71;55.53;98198.59;4481167;31;20180;-71
2022/07/26 07:01:10;;;;;;;15.82;5.75;;;;;;;26.00;54.75;98195.72;4482272;31;20100;-72
2022/07/26 07:03:38;;;;;;;16.95;5.57;;;;;;;26.20;53.77;98181.69;4482747;31;20179;-71
2022/07/26 07:06:05;;;;;;;11.77;5.50;;;;;;;26.10;54.25;98195.00;4480368;31;20092;-72
2022/07/26 07:08:33;;;;;;;13.30;5.40;;;;;;;26.40;53.26;98189.13;4482078;32;20131;-72
2022/07/26 07:11:01;;;;;;;11.05;4.95;;;;;;;26.37;53.53;98190.47;4481333;32;20122;-72
2022/07/26 07:13:29;;;;;;;8.52;5.45;;;;;;;26.42;53.21;98196.94;4479954;31;20096;-72
2022/07/26 07:15:57;;;;;;;7.28;5.28;;;;;;;26.45;53.25;98191.03;4480964;31;20119;-72
2022/07/26 07:18:24;;;;;;;8.35;4.70;;;;;;;26.48;53.01;98206.66;4476940;32;20127;-72
2022/07/26 07:20:51;;;;;;;14.65;5.22;;;;;;;26.59;52.74;98188.75;4479921;32;20097;-72
2022/07/26 07:23:21;;;;;;;6.07;4.90;;;;;;;26.54;52.87;98197.56;4477935;31;20140;-72
2022/07/26 07:25:49;;;;;;;10.63;4.68;;;;;;;26.60;52.50;98199.22;4479779;32;20104;-71
2022/07/26 07:28:17;;;;;;;10.88;5.00;;;;;;;26.58;52.69;98204.06;4475048;32;20085;-71
2022/07/26 07:30:46;;;;;;;7.78;4.47;;;;;;;26.67;52.72;98199.06;4479631;31;20112;-72
2022/07/26 07:33:14;;;;;;;10.45;4.35;;;;;;;26.81;51.80;98210.19;4479897;31;20454;-71
2022/07/26 07:35:50;;;;;;;7.10;4.25;;;;;;;26.99;51.29;98199.03;4478728;32;20156;-72
2022/07/26 07:38:18;;;;;;;8.38;4.40;;;;;;;27.07;51.23;98198.56;4478205;31;20096;-72
2022/07/26 07:40:45;;;;;;;8.20;4.82;;;;;;;27.14;50.68;98205.59;4480331;31;20126;-72
2022/07/26 07:43:12;;;;;;;8.10;4.47;;;;;;;27.14;50.61;98202.91;4480936;31;20160;-72
2022/07/26 07:45:39;;;;;;;10.98;4.53;;;;;;;26.99;51.09;98200.91;4476327;32;20101;-72
2022/07/26 07:48:06;;;;;;;7.70;4.43;;;;;;;26.70;51.87;98207.41;4476502;31;20156;-72
2022/07/26 07:50:33;;;;;;;9.52;4.68;;;;;;;26.50;52.62;98209.91;4480539;31;20096;-71
2022/07/26 07:53:01;;;;;;;9.30;4.72;;;;;;;26.50;52.96;98229.53;4483027;32;20161;-72
2022/07/26 07:55:28;;;;;;;8.60;4.47;;;;;;;26.40;53.18;98237.47;4480559;31;20108;-72
2022/07/26 07:58:10;;;;;;;11.07;4.53;;;;;;;26.23;53.92;98239.47;4477740;31;20088;-72
2022/07/26 08:00:37;;;;;;;6.53;3.92;;;;;;;25.97;54.70;98239.13;4477002;32;20112;-72
2022/07/26 08:03:07;;;;;;;8.23;4.25;;;;;;;26.24;54.31;98241.06;4482169;31;20161;-72
2022/07/26 08:05:34;;;;;;;6.80;3.67;;;;;;;26.56;53.71;98231.19;4478179;31;20130;-71
2022/07/26 08:08:06;;;;;;;10.13;4.25;;;;;;;26.69;53.01;98215.72;4482234;32;20127;-72
2022/07/26 08:10:34;;;;;;;5.45;4.20;;;;;;;26.68;52.63;98220.31;4473945;32;20598;-71
2022/07/26 08:13:08;;;;;;;10.13;4.85;;;;;;;26.54;52.92;98222.56;4480829;31;20156;-71
2022/07/26 08:15:37;;;;;;;7.65;4.40;;;;;;;26.29;53.98;98225.81;4483321;32;20092;-71
2022/07/26 08:18:05;;;;;;;8.48;4.57;;;;;;;26.70;53.51;98204.72;4477345;31;20446;-72
2022/07/26 08:20:34;;;;;;;6.85;4.65;;;;;;;26.95;52.53;98218.63;4480731;32;20105;-72
2022/07/26 08:23:02;;;;;;;8.82;4.30;;;;;;;27.04;52.40;98217.91;4479424;31;20100;-72
2022/07/26 08:25:50;;;;;;;6.53;4.35;;;;;;;26.83;52.50;98203.50;4479295;32;20144;-71
2022/07/26 08:28:47;;;;;;;10.45;4.50;;;;;;;26.50;53.36;98210.72;4482071;32;20478;-72
2022/07/26 08:31:45;;;;;;;10.30;4.47;;;;;;;26.55;52.87;98201.87;4477148;32;20100;-72
2022/07/26 08:34:33;;;;;;;6.80;4.30;;;;;;;26.74;52.58;98196.97;4483141;32;20228;-72
2022/07/26 08:37:20;;;;;;;10.13;4.28;;;;;;;26.89;52.48;98201.66;4480775;32;20512;-72
2022/07/26 08:40:07;;;;;;;6.07;4.12;;;;;;;26.79;52.67;98212.34;4478377;32;20160;-72
2022/07/26 08:42:55;;;;;;;6.65;4.03;;;;;;;26.73;52.85;98209.59;4477609;32;20100;-72
2022/07/26 08:45:44;;;;;;;7.32;4.45;;;;;;;26.74;52.27;98200.47;4478524;32;20117;-72
2022/07/26 08:48:31;;;;;;;7.22;4.12;;;;;;;26.93;52.20;98192.00;4478228;32;20118;-71
2022/07/26 08:51:25;;;;;;;7.67;4.20;;;;;;;27.07;51.62;98201.25;4477209;32;20101;-72
2022/07/26 08:54:13;;;;;;;6.72;4.43;;;;;;;26.54;53.14;98197.56;4482083;32;20157;-72
2022/07/26 08:57:00;;;;;;;10.05;4.30;;;;;;;26.75;52.46;98212.03;4478337;32;20158;-72
2022/07/26 09:00:16;;;;;;;12.13;4.28;;;;;;;26.99;51.51;98217.84;4481373;32;20108;-72
2022/07/26 09:02:44;;;;;;;8.35;4.75;;;;;;;26.68;52.38;98228.38;4482272;31;20150;-71
2022/07/26 09:05:12;;;;;;;8.27;4.75;;;;;;;26.27;54.07;98241.37;4480479;31;20108;-72
2022/07/26 09:07:40;;;;;;;13.93;4.82;;;;;;;26.34;53.88;98244.69;4481626;31;20167;-71
2022/07/26 09:10:09;;;;;;;9.63;4.43;;;;;;;26.11;54.53;98255.69;4481022;32;20105;-71
2022/07/26 09:12:37;;;;;;;6.40;4.62;;;;;;;26.09;54.73;98250.56;4479141;31;20482;-71
2022/07/26 09:15:07;;;;;;;6.00;4.37;;;;;;;25.86;55.45;98259.69;4480736;31;20504;-72
2022/07/26 09:17:40;;;;;;;8.88;5.07;;;;;;;25.80;55.81;98271.37;4480017;32;20124;-71
2022/07/26 09:20:16;;;;;;;7.87;3.85;;;;;;;25.79;56.22;98275.94;4481005;31;20552;-71
2022/07/26 09:23:02;;;;;;;9.60;4.67;;;;;;;25.56;57.32;98284.22;4478361;32;20122;-71
2022/07/26 09:25:38;;;;;;;6.53;3.97;;;;;;;25.35;57.79;98293.84;4477300;32;20088;-71
2022/07/26 09:28:27;;;;;;;6.57;4.53;;;;;;;25.27;58.42;98321.81;4481004;32;20563;-72
2022/07/26 09:30:58;;;;;;;10.38;5.05;;;;;;;25.09;58.96;98336.28;4479066;32;20088;-71
2022/07/26 09:33:42;;;;;;;8.88;4.55;;;;;;;24.80;60.07;98352.41;4480166;32;20124;-71
2022/07/26 09:36:10;;;;;;;6.37;4.80;;;;;;;24.62;60.67;98378.31;4478140;32;20152;-71
2022/07/26 09:38:43;;;;;;;6.90;4.97;;;;;;;24.42;61.38;98377.87;4478494;31;20095;-72
2022/07/26 09:41:18;;;;;;;6.12;4.55;;;;;;;24.45;61.36;98372.03;4478509;32;20164;-72
2022/07/26 09:43:45;;;;;;;6.35;4.10;;;;;;;24.31;62.03;98347.41;4478546;32;20112;-72
2022/07/26 09:46:20;;;;;;;7.95;4.43;;;;;;;24.20;64.51;98313.47;4479659;32;20108;-71
2022/07/26 09:48:48;;;;;;;9.38;4.53;;;;;;;23.81;74.04;98327.34;4481255;32;20123;-71
2022/07/26 09:51:46;;;;;;;13.60;5.22;;;;;;;22.97;81.40;98351.53;4473279;32;20130;-71
2022/07/26 09:54:31;;;;;;;9.68;4.97;;;;;;;22.10;91.90;98361.38;4481485;32;20147;-71
2022/07/26 09:57:00;;;;;;;9.73;5.40;;;;;;;21.82;96.69;98356.56;4481290;31;20566;-72
2022/07/26 09:59:28;;;;;;;10.50;4.78;;;;;;;21.29;100.00;98317.84;4481652;32;20457;-71
2022/07/26 10:01:57;;;;;;;12.90;6.65;;;;;;;20.88;100.00;98289.88;4480919;32;20579;-70
2022/07/26 10:04:25;;;;;;;11.38;6.75;;;;;;;20.66;100.00;98298.19;4478057;31;20478;-71
2022/07/26 10:06:52;;;;;;;13.07;7.07;;;;;;;20.74;100.00;98308.59;4479674;32;20104;-72
2022/07/26 10:09:22;;;;;;;11.88;7.10;;;;;;;20.64;100.00;98310.88;4478588;31;20127;-72
2022/07/26 10:11:54;;;;;;;13.98;7.00;;;;;;;20.88;100.00;98325.31;4483829;32;20179;-72
2022/07/26 10:14:34;;;;;;;10.85;6.87;;;;;;;21.22;100.00;98355.19;4480163;32;20462;-73
2022/07/26 10:17:26;;;;;;;12.95;7.65;;;;;;;21.48;100.00;98364.00;4482875;32;20088;-74
2022/07/26 10:20:00;;;;;;;14.85;7.95;;;;;;;21.38;100.00;98358.38;4483608;32;20092;-73
2022/07/26 10:22:42;;;;;;;11.80;7.65;;;;;;;21.51;100.00;98357.47;4479515;32;20668;-73
2022/07/26 10:25:15;;;;;;;11.70;7.10;;;;;;;21.43;100.00;98367.31;4484357;31;20131;-72
2022/07/26 10:27:47;;;;;;;10.50;7.43;;;;;;;21.15;100.00;98374.91;4484366;32;20149;-74
2022/07/26 10:30:17;;;;;;;12.20;7.97;;;;;;;21.28;100.00;98385.47;4483927;31;20135;-73
2022/07/26 10:32:57;;;;;;;16.87;7.55;;;;;;;21.23;100.00;98380.00;4484163;31;20092;-74
2022/07/26 10:35:33;;;;;;;11.73;8.43;;;;;;;21.35;100.00;98375.59;4479101;32;20096;-74
2022/07/26 10:38:12;;;;;;;13.45;8.32;;;;;;;21.37;100.00;98373.53;4481841;32;20146;-73
2022/07/26 10:41:04;;;;;;;10.30;7.75;;;;;;;21.33;100.00;98369.66;4482211;31;20124;-74
2022/07/26 10:43:33;;;;;;;13.40;8.63;;;;;;;21.22;100.00;98370.34;4481861;32;20183;-72
2022/07/26 10:46:14;;;;;;;11.35;7.80;;;;;;;21.27;100.00;98381.16;4481532;32;20426;-72
2022/07/26 10:49:08;;;;;;;14.57;8.38;;;;;;;21.44;100.00;98384.94;4480943;32;20820;-75
2022/07/26 10:51:37;;;;;;;12.93;8.43;;;;;;;21.56;100.00;98387.75;4481868;32;20088;-76
2022/07/26 10:54:10;;;;;;;12.07;7.90;;;;;;;21.75;100.00;98393.94;4484032;32;20147;-73
2022/07/26 10:56:38;;;;;;;9.97;7.33;;;;;;;21.76;100.00;98408.09;4484776;31;20458;-72
2022/07/26 10:59:06;;;;;;;14.77;8.43;;;;;;;21.98;100.00;98409.34;4483950;31;20171;-75
2022/07/26 11:01:34;;;;;;;11.80;7.87;;;;;;;22.06;100.00;98412.72;4478148;31;20119;-74
2022/07/26 11:04:01;;;;;;;11.95;7.90;;;;;;;22.12;100.00;98402.03;4482857;32;20198;-74
2022/07/26 11:06:29;;;;;;;11.95;8.15;;;;;;;22.22;100.00;98400.69;4482516;32;20100;-74
2022/07/26 11:08:56;;;;;;;9.63;7.45;;;;;;;22.43;100.00;98391.44;4482218;32;20109;-72
2022/07/26 11:11:31;;;;;;;11.35;7.65;;;;;;;22.50;100.00;98392.19;4484932;31;20506;-72
2022/07/26 11:14:09;;;;;;;10.75;7.15;;;;;;;22.52;100.00;98383.97;4485261;31;20072;-74
2022/07/26 11:16:55;;;;;;;10.15;6.57;;;;;;;22.67;100.00;98387.06;4485427;31;20146;-74
2022/07/26 11:19:24;;;;;;;10.15;6.85;;;;;;;22.75;100.00;98384.06;4485273;31;20085;-74
2022/07/26 11:21:57;;;;;;;9.63;6.43;;;;;;;22.67;97.53;98379.03;4485133;31;20084;-75
2022/07/26 11:24:25;;;;;;;;;;;;;;;22.70;97.10;98378.59;4485434;31;20107;-74
2022/07/26 11:26:53;;;;;;;8.10;6.28;;;;;;;22.76;96.97;98374.22;4485363;31;20362;-72
2022/07/26 11:29:33;;;;;;;9.20;6.47;;;;;;;22.93;97.07;98372.53;4485133;32;20119;-74
2022/07/26 11:32:18;;;;;;;12.68;6.00;;;;;;;22.92;97.36;98386.09;4484952;32;20463;-74
2022/07/26 11:35:01;;;;;;;7.78;6.20;;;;;;;23.06;96.36;98384.87;4484698;32;20084;-72
2022/07/26 11:37:28;;;;;;;7.45;6.00;;;;;;;23.30;94.67;98371.59;4485014;31;20401;-74
2022/07/26 11:39:56;;;;;;;9.38;6.07;;;;;;;23.12;90.57;98381.34;4483541;32;20108;-73
2022/07/26 11:42:23;;;;;;;10.38;6.60;;;;;;;22.95;90.49;98377.63;4484898;31;20096;-72
2022/07/26 11:44:52;;;;;;;8.00;5.82;;;;;;;23.10;89.90;98369.22;4484569;32;20088;-74